sensor_id;sensor_type;location;lat;lon;timestamp;temperature;humidity
20911;DHT22;10615;42.702;23.314;2023-02-01T00:00:46;2.10;99.90
20911;DHT22;10615;42.702;23.314;2023-02-01T00:01:47;2.10;99.90
20911;DHT22;10615;42.702;23.314;2023-02-01T00:02:47;2.10;99.90
20911;DHT22;10615;42.702;23.314;2023-02-01T00:03:48;2.10;99.90
20911;DHT22;10615;42.702;23.314;2023-02-01T00:04:49;2.10;99.90
20911;DHT22;10615;42.702;23.314;2023-02-01T00:05:59;2.10;99.90
20911;DHT22;10615;42.702;23.314;2023-02-01T00:06:59;2.10;99.90
20911;DHT22;10615;42.702;23.314;2023-02-01T00:08:01;2.10;99.90
20911;DHT22;10615;42.702;23.314;2023-02-01T00:09:02;2.10;99.90
20911;DHT22;10615;42.702;23.314;2023-02-01T00:10:04;2.10;99.90
20911;DHT22;10615;42.702;23.314;2023-02-01T00:11:10;2.10;99.90
20911;DHT22;10615;42.702;23.314;2023-02-01T00:12:11;2.10;99.90
20911;DHT22;10615;42.702;23.314;2023-02-01T00:13:12;2.10;99.90
20911;DHT22;10615;42.702;23.314;2023-02-01T00:14:13;2.10;99.90
20911;DHT22;10615;42.702;23.314;2023-02-01T00:15:14;2.10;99.90
20911;DHT22;10615;42.702;23.314;2023-02-01T00:16:18;2.10;99.90
20911;DHT22;10615;42.702;23.314;2023-02-01T00:17:19;2.20;99.90
20911;DHT22;10615;42.702;23.314;2023-02-01T00:18:20;2.10;99.90
20911;DHT22;10615;42.702;23.314;2023-02-01T00:19:21;2.20;99.90
20911;DHT22;10615;42.702;23.314;2023-02-01T00:20:21;2.20;99.90
20911;DHT22;10615;42.702;23.314;2023-02-01T00:21:22;2.10;99.90
20911;DHT22;10615;42.702;23.314;2023-02-01T00:22:23;2.10;99.90
20911;DHT22;10615;42.702;23.314;2023-02-01T00:23:23;2.10;99.90
20911;DHT22;10615;42.702;23.314;2023-02-01T00:24:24;2.10;99.90
20911;DHT22;10615;42.702;23.314;2023-02-01T00:25:25;2.10;99.90
20911;DHT22;10615;42.702;23.314;2023-02-01T00:26:27;2.20;99.90
20911;DHT22;10615;42.702;23.314;2023-02-01T00:27:30;2.20;99.90
20911;DHT22;10615;42.702;23.314;2023-02-01T00:28:31;2.20;99.90
20911;DHT22;10615;42.702;23.314;2023-02-01T00:29:32;2.20;99.90
20911;DHT22;10615;42.702;23.314;2023-02-01T00:30:33;2.10;99.90
20911;DHT22;10615;42.702;23.314;2023-02-01T00:31:34;2.20;99.90
20911;DHT22;10615;42.702;23.314;2023-02-01T00:32:35;2.20;99.90
20911;DHT22;10615;42.702;23.314;2023-02-01T00:33:35;2.20;99.90
20911;DHT22;10615;42.702;23.314;2023-02-01T00:34:36;2.20;99.90
20911;DHT22;10615;42.702;23.314;2023-02-01T00:35:37;2.20;99.90
20911;DHT22;10615;42.702;23.314;2023-02-01T00:36:37;2.20;99.90
20911;DHT22;10615;42.702;23.314;2023-02-01T00:37:38;2.20;99.90
20911;DHT22;10615;42.702;23.314;2023-02-01T00:38:39;2.20;99.90
20911;DHT22;10615;42.702;23.314;2023-02-01T00:39:39;2.20;99.90
20911;DHT22;10615;42.702;23.314;2023-02-01T00:40:40;2.20;99.90
20911;DHT22;10615;42.702;23.314;2023-02-01T00:41:41;2.20;99.90
20911;DHT22;10615;42.702;23.314;2023-02-01T00:42:42;2.20;99.80
20911;DHT22;10615;42.702;23.314;2023-02-01T00:43:43;2.20;99.70
20911;DHT22;10615;42.702;23.314;2023-02-01T00:44:44;2.10;99.60
20911;DHT22;10615;42.702;23.314;2023-02-01T00:45:47;2.10;99.40
20911;DHT22;10615;42.702;23.314;2023-02-01T00:46:48;2.10;99.30
20911;DHT22;10615;42.702;23.314;2023-02-01T00:47:48;2.10;99.20
20911;DHT22;10615;42.702;23.314;2023-02-01T00:48:49;2.10;99.10
20911;DHT22;10615;42.702;23.314;2023-02-01T00:49:50;2.10;98.90
20911;DHT22;10615;42.702;23.314;2023-02-01T00:50:51;2.00;98.80
20911;DHT22;10615;42.702;23.314;2023-02-01T00:51:51;2.00;98.80
20911;DHT22;10615;42.702;23.314;2023-02-01T00:52:52;2.00;98.80
20911;DHT22;10615;42.702;23.314;2023-02-01T00:53:53;2.00;98.80
20911;DHT22;10615;42.702;23.314;2023-02-01T00:54:53;2.00;98.80
20911;DHT22;10615;42.702;23.314;2023-02-01T00:55:54;1.90;98.60
20911;DHT22;10615;42.702;23.314;2023-02-01T00:56:55;1.90;98.60
20911;DHT22;10615;42.702;23.314;2023-02-01T00:57:55;1.90;98.60
20911;DHT22;10615;42.702;23.314;2023-02-01T00:58:56;1.90;98.50
20911;DHT22;10615;42.702;23.314;2023-02-01T00:59:57;1.90;98.50
20911;DHT22;10615;42.702;23.314;2023-02-01T01:01:22;1.90;98.40
20911;DHT22;10615;42.702;23.314;2023-02-01T01:02:23;1.90;98.30
20911;DHT22;10615;42.702;23.314;2023-02-01T01:03:23;1.90;98.30
20911;DHT22;10615;42.702;23.314;2023-02-01T01:04:24;1.90;98.10
20911;DHT22;10615;42.702;23.314;2023-02-01T01:05:24;1.90;97.90
20911;DHT22;10615;42.702;23.314;2023-02-01T01:06:30;1.90;97.80
20911;DHT22;10615;42.702;23.314;2023-02-01T01:07:31;1.90;97.70
20911;DHT22;10615;42.702;23.314;2023-02-01T01:08:32;1.90;97.60
20911;DHT22;10615;42.702;23.314;2023-02-01T01:09:33;1.90;97.50
20911;DHT22;10615;42.702;23.314;2023-02-01T01:10:34;1.90;97.50
20911;DHT22;10615;42.702;23.314;2023-02-01T01:11:37;1.90;97.40
20911;DHT22;10615;42.702;23.314;2023-02-01T01:12:38;1.90;97.30
20911;DHT22;10615;42.702;23.314;2023-02-01T01:13:39;2.00;97.30
20911;DHT22;10615;42.702;23.314;2023-02-01T01:14:40;2.00;97.20
20911;DHT22;10615;42.702;23.314;2023-02-01T01:15:41;2.00;97.00
20911;DHT22;10615;42.702;23.314;2023-02-01T01:16:42;2.00;96.90
20911;DHT22;10615;42.702;23.314;2023-02-01T01:17:42;2.00;96.70
20911;DHT22;10615;42.702;23.314;2023-02-01T01:18:43;2.00;96.60
20911;DHT22;10615;42.702;23.314;2023-02-01T01:19:44;2.00;96.60
20911;DHT22;10615;42.702;23.314;2023-02-01T01:20:45;2.00;96.30
20911;DHT22;10615;42.702;23.314;2023-02-01T01:21:45;2.00;96.20
20911;DHT22;10615;42.702;23.314;2023-02-01T01:22:46;2.00;95.90
20911;DHT22;10615;42.702;23.314;2023-02-01T01:23:47;2.00;95.80
20911;DHT22;10615;42.702;23.314;2023-02-01T01:24:48;2.00;95.70
20911;DHT22;10615;42.702;23.314;2023-02-01T01:25:48;2.00;95.50
20911;DHT22;10615;42.702;23.314;2023-02-01T01:26:49;2.00;95.50
20911;DHT22;10615;42.702;23.314;2023-02-01T01:27:50;1.90;95.30
20911;DHT22;10615;42.702;23.314;2023-02-01T01:28:51;1.90;95.20
20911;DHT22;10615;42.702;23.314;2023-02-01T01:29:52;1.90;95.10
20911;DHT22;10615;42.702;23.314;2023-02-01T01:30:53;1.90;95.00
20911;DHT22;10615;42.702;23.314;2023-02-01T01:31:53;1.90;94.90
20911;DHT22;10615;42.702;23.314;2023-02-01T01:32:54;1.80;94.70
20911;DHT22;10615;42.702;23.314;2023-02-01T01:33:57;1.80;94.60
20911;DHT22;10615;42.702;23.314;2023-02-01T01:34:58;1.80;94.60
20911;DHT22;10615;42.702;23.314;2023-02-01T01:35:59;1.80;94.60
20911;DHT22;10615;42.702;23.314;2023-02-01T01:36:59;1.70;94.50
20911;DHT22;10615;42.702;23.314;2023-02-01T01:38:00;1.70;94.50
20911;DHT22;10615;42.702;23.314;2023-02-01T01:39:01;1.70;94.50
20911;DHT22;10615;42.702;23.314;2023-02-01T01:40:04;1.70;94.50
20911;DHT22;10615;42.702;23.314;2023-02-01T01:41:05;1.70;94.40
20911;DHT22;10615;42.702;23.314;2023-02-01T01:42:10;1.70;94.40
20911;DHT22;10615;42.702;23.314;2023-02-01T01:43:17;1.70;94.20
20911;DHT22;10615;42.702;23.314;2023-02-01T01:45:01;1.60;94.10
20911;DHT22;10615;42.702;23.314;2023-02-01T01:46:04;1.60;94.00
20911;DHT22;10615;42.702;23.314;2023-02-01T01:47:04;1.60;94.00
20911;DHT22;10615;42.702;23.314;2023-02-01T01:48:31;1.60;93.90
20911;DHT22;10615;42.702;23.314;2023-02-01T01:49:32;1.60;93.80
20911;DHT22;10615;42.702;23.314;2023-02-01T01:50:39;1.60;93.80
20911;DHT22;10615;42.702;23.314;2023-02-01T01:51:45;1.60;93.70
20911;DHT22;10615;42.702;23.314;2023-02-01T01:52:49;1.60;93.60
20911;DHT22;10615;42.702;23.314;2023-02-01T01:54:02;1.60;93.50
20911;DHT22;10615;42.702;23.314;2023-02-01T01:55:04;1.60;93.40
20911;DHT22;10615;42.702;23.314;2023-02-01T01:56:06;1.50;93.40
20911;DHT22;10615;42.702;23.314;2023-02-01T01:57:11;1.50;93.40
20911;DHT22;10615;42.702;23.314;2023-02-01T01:58:17;1.50;93.30
20911;DHT22;10615;42.702;23.314;2023-02-01T01:59:19;1.50;93.40
20911;DHT22;10615;42.702;23.314;2023-02-01T02:00:21;1.50;93.40
20911;DHT22;10615;42.702;23.314;2023-02-01T02:01:22;1.50;93.70
20911;DHT22;10615;42.702;23.314;2023-02-01T02:02:23;1.50;93.30
20911;DHT22;10615;42.702;23.314;2023-02-01T02:03:41;1.50;93.20
20911;DHT22;10615;42.702;23.314;2023-02-01T02:04:42;1.50;93.10
20911;DHT22;10615;42.702;23.314;2023-02-01T02:05:44;1.50;93.10
20911;DHT22;10615;42.702;23.314;2023-02-01T02:06:58;1.50;93.00
20911;DHT22;10615;42.702;23.314;2023-02-01T02:08:00;1.50;93.00
20911;DHT22;10615;42.702;23.314;2023-02-01T02:09:03;1.50;93.00
20911;DHT22;10615;42.702;23.314;2023-02-01T02:10:06;1.50;92.90
20911;DHT22;10615;42.702;23.314;2023-02-01T02:11:12;1.40;92.90
20911;DHT22;10615;42.702;23.314;2023-02-01T02:12:14;1.40;92.90
20911;DHT22;10615;42.702;23.314;2023-02-01T02:13:16;1.40;93.00
20911;DHT22;10615;42.702;23.314;2023-02-01T02:14:20;1.40;93.00
20911;DHT22;10615;42.702;23.314;2023-02-01T02:15:22;1.40;93.10
20911;DHT22;10615;42.702;23.314;2023-02-01T02:16:51;1.40;93.10
20911;DHT22;10615;42.702;23.314;2023-02-01T02:18:24;1.40;93.20
20911;DHT22;10615;42.702;23.314;2023-02-01T02:19:32;1.30;93.20
20911;DHT22;10615;42.702;23.314;2023-02-01T02:29:34;1.30;93.20
20911;DHT22;10615;42.702;23.314;2023-02-01T02:32:14;1.30;93.20
20911;DHT22;10615;42.702;23.314;2023-02-01T02:33:48;1.30;93.10
20911;DHT22;10615;42.702;23.314;2023-02-01T02:34:54;1.30;93.10
20911;DHT22;10615;42.702;23.314;2023-02-01T02:43:57;1.30;92.90
20911;DHT22;10615;42.702;23.314;2023-02-01T02:45:29;1.40;93.00
20911;DHT22;10615;42.702;23.314;2023-02-01T02:46:50;1.40;93.00
20911;DHT22;10615;42.702;23.314;2023-02-01T02:48:21;1.40;93.00
20911;DHT22;10615;42.702;23.314;2023-02-01T02:49:56;1.40;93.00
20911;DHT22;10615;42.702;23.314;2023-02-01T02:51:29;1.40;93.10
20911;DHT22;10615;42.702;23.314;2023-02-01T02:53:04;1.40;93.10
20911;DHT22;10615;42.702;23.314;2023-02-01T02:54:32;1.40;93.10
20911;DHT22;10615;42.702;23.314;2023-02-01T02:55:52;1.40;93.20
20911;DHT22;10615;42.702;23.314;2023-02-01T02:57:28;1.40;93.30
20911;DHT22;10615;42.702;23.314;2023-02-01T02:58:48;1.40;93.40
20911;DHT22;10615;42.702;23.314;2023-02-01T03:00:12;1.40;93.40
20911;DHT22;10615;42.702;23.314;2023-02-01T03:01:32;1.40;93.40
20911;DHT22;10615;42.702;23.314;2023-02-01T03:02:52;1.40;93.50
20911;DHT22;10615;42.702;23.314;2023-02-01T03:04:11;1.40;93.50
20911;DHT22;10615;42.702;23.314;2023-02-01T03:05:17;1.40;93.50
20911;DHT22;10615;42.702;23.314;2023-02-01T03:06:18;1.50;93.60
20911;DHT22;10615;42.702;23.314;2023-02-01T03:08:44;1.50;93.60
20911;DHT22;10615;42.702;23.314;2023-02-01T03:09:47;1.60;93.50
20911;DHT22;10615;42.702;23.314;2023-02-01T03:11:07;1.60;93.50
20911;DHT22;10615;42.702;23.314;2023-02-01T03:12:11;1.60;93.30
20911;DHT22;10615;42.702;23.314;2023-02-01T03:14:41;1.60;93.10
20911;DHT22;10615;42.702;23.314;2023-02-01T03:16:00;1.60;93.00
20911;DHT22;10615;42.702;23.314;2023-02-01T03:17:10;1.70;93.00
20911;DHT22;10615;42.702;23.314;2023-02-01T03:18:16;1.70;92.80
20911;DHT22;10615;42.702;23.314;2023-02-01T03:19:25;1.70;92.70
20911;DHT22;10615;42.702;23.314;2023-02-01T03:20:30;1.70;92.60
20911;DHT22;10615;42.702;23.314;2023-02-01T03:21:35;1.70;92.60
20911;DHT22;10615;42.702;23.314;2023-02-01T03:22:39;1.70;92.40
20911;DHT22;10615;42.702;23.314;2023-02-01T03:23:42;1.70;92.40
20911;DHT22;10615;42.702;23.314;2023-02-01T03:24:56;1.70;92.30
20911;DHT22;10615;42.702;23.314;2023-02-01T03:25:59;1.70;92.20
20911;DHT22;10615;42.702;23.314;2023-02-01T03:28:09;1.70;92.10
20911;DHT22;10615;42.702;23.314;2023-02-01T03:29:21;1.70;92.10
20911;DHT22;10615;42.702;23.314;2023-02-01T03:30:26;1.70;92.10
20911;DHT22;10615;42.702;23.314;2023-02-01T03:31:28;1.70;92.10
20911;DHT22;10615;42.702;23.314;2023-02-01T03:32:29;1.70;92.10
20911;DHT22;10615;42.702;23.314;2023-02-01T03:33:50;1.70;92.10
20911;DHT22;10615;42.702;23.314;2023-02-01T03:34:51;1.70;92.00
20911;DHT22;10615;42.702;23.314;2023-02-01T03:37:25;1.60;91.90
20911;DHT22;10615;42.702;23.314;2023-02-01T03:38:40;1.60;91.90
20911;DHT22;10615;42.702;23.314;2023-02-01T03:39:46;1.60;91.90
20911;DHT22;10615;42.702;23.314;2023-02-01T03:40:53;1.60;91.90
20911;DHT22;10615;42.702;23.314;2023-02-01T03:41:58;1.60;91.90
20911;DHT22;10615;42.702;23.314;2023-02-01T03:43:02;1.60;91.90
20911;DHT22;10615;42.702;23.314;2023-02-01T03:44:15;1.60;91.90
20911;DHT22;10615;42.702;23.314;2023-02-01T03:45:24;1.60;91.90
20911;DHT22;10615;42.702;23.314;2023-02-01T03:46:49;1.60;91.90
20911;DHT22;10615;42.702;23.314;2023-02-01T03:47:55;1.60;91.80
20911;DHT22;10615;42.702;23.314;2023-02-01T03:48:56;1.60;91.80
20911;DHT22;10615;42.702;23.314;2023-02-01T03:50:04;1.60;91.80
20911;DHT22;10615;42.702;23.314;2023-02-01T03:51:06;1.60;91.70
20911;DHT22;10615;42.702;23.314;2023-02-01T03:52:13;1.60;91.70
20911;DHT22;10615;42.702;23.314;2023-02-01T03:53:17;1.60;91.70
20911;DHT22;10615;42.702;23.314;2023-02-01T03:54:19;1.60;91.70
20911;DHT22;10615;42.702;23.314;2023-02-01T03:55:23;1.60;91.70
20911;DHT22;10615;42.702;23.314;2023-02-01T03:56:25;1.60;91.70
20911;DHT22;10615;42.702;23.314;2023-02-01T03:57:31;1.50;91.70
20911;DHT22;10615;42.702;23.314;2023-02-01T03:58:33;1.60;91.70
20911;DHT22;10615;42.702;23.314;2023-02-01T03:59:34;1.50;91.70
20911;DHT22;10615;42.702;23.314;2023-02-01T04:00:35;1.50;91.70
20911;DHT22;10615;42.702;23.314;2023-02-01T04:01:35;1.50;91.70
20911;DHT22;10615;42.702;23.314;2023-02-01T04:02:36;1.50;91.60
20911;DHT22;10615;42.702;23.314;2023-02-01T04:03:37;1.50;91.60
20911;DHT22;10615;42.702;23.314;2023-02-01T04:04:37;1.50;91.60
20911;DHT22;10615;42.702;23.314;2023-02-01T04:05:38;1.50;92.00
20911;DHT22;10615;42.702;23.314;2023-02-01T04:06:39;1.50;91.70
20911;DHT22;10615;42.702;23.314;2023-02-01T04:07:39;1.50;91.70
20911;DHT22;10615;42.702;23.314;2023-02-01T04:08:40;1.50;91.70
20911;DHT22;10615;42.702;23.314;2023-02-01T04:09:41;1.50;91.70
20911;DHT22;10615;42.702;23.314;2023-02-01T04:10:42;1.50;91.70
20911;DHT22;10615;42.702;23.314;2023-02-01T04:11:43;1.50;91.70
20911;DHT22;10615;42.702;23.314;2023-02-01T04:12:43;1.60;91.70
20911;DHT22;10615;42.702;23.314;2023-02-01T04:13:44;1.60;91.80
20911;DHT22;10615;42.702;23.314;2023-02-01T04:14:45;1.60;91.80
20911;DHT22;10615;42.702;23.314;2023-02-01T04:15:47;1.60;91.70
20911;DHT22;10615;42.702;23.314;2023-02-01T04:16:50;1.60;91.70
20911;DHT22;10615;42.702;23.314;2023-02-01T04:17:50;1.70;91.70
20911;DHT22;10615;42.702;23.314;2023-02-01T04:18:51;1.60;91.70
20911;DHT22;10615;42.702;23.314;2023-02-01T04:19:52;1.70;91.70
20911;DHT22;10615;42.702;23.314;2023-02-01T04:20:52;1.70;91.60
20911;DHT22;10615;42.702;23.314;2023-02-01T04:21:53;1.70;91.60
20911;DHT22;10615;42.702;23.314;2023-02-01T04:22:53;1.70;91.50
20911;DHT22;10615;42.702;23.314;2023-02-01T04:23:54;1.80;91.50
20911;DHT22;10615;42.702;23.314;2023-02-01T04:24:55;1.80;91.50
20911;DHT22;10615;42.702;23.314;2023-02-01T04:26:02;1.80;91.50
20911;DHT22;10615;42.702;23.314;2023-02-01T04:27:04;1.80;91.50
20911;DHT22;10615;42.702;23.314;2023-02-01T04:28:04;1.80;91.50
20911;DHT22;10615;42.702;23.314;2023-02-01T04:29:09;1.80;91.50
20911;DHT22;10615;42.702;23.314;2023-02-01T04:30:10;1.80;91.50
20911;DHT22;10615;42.702;23.314;2023-02-01T04:31:11;1.80;91.50
20911;DHT22;10615;42.702;23.314;2023-02-01T04:32:12;1.80;91.60
20911;DHT22;10615;42.702;23.314;2023-02-01T04:33:13;1.80;91.60
20911;DHT22;10615;42.702;23.314;2023-02-01T04:34:16;1.90;91.60
20911;DHT22;10615;42.702;23.314;2023-02-01T04:35:16;1.90;91.60
20911;DHT22;10615;42.702;23.314;2023-02-01T04:36:19;1.80;91.60
20911;DHT22;10615;42.702;23.314;2023-02-01T04:37:22;1.80;91.60
20911;DHT22;10615;42.702;23.314;2023-02-01T04:38:23;1.80;91.60
20911;DHT22;10615;42.702;23.314;2023-02-01T04:39:24;1.90;91.60
20911;DHT22;10615;42.702;23.314;2023-02-01T04:40:24;1.80;91.50
20911;DHT22;10615;42.702;23.314;2023-02-01T04:41:25;1.90;91.50
20911;DHT22;10615;42.702;23.314;2023-02-01T04:42:26;1.90;91.50
20911;DHT22;10615;42.702;23.314;2023-02-01T04:43:26;1.90;91.60
20911;DHT22;10615;42.702;23.314;2023-02-01T04:44:27;1.90;91.60
20911;DHT22;10615;42.702;23.314;2023-02-01T04:45:28;1.90;91.60
20911;DHT22;10615;42.702;23.314;2023-02-01T04:46:28;1.90;91.60
20911;DHT22;10615;42.702;23.314;2023-02-01T04:47:29;2.00;91.70
20911;DHT22;10615;42.702;23.314;2023-02-01T04:48:30;2.00;91.70
20911;DHT22;10615;42.702;23.314;2023-02-01T04:49:31;2.00;91.70
20911;DHT22;10615;42.702;23.314;2023-02-01T04:50:31;2.00;91.70
20911;DHT22;10615;42.702;23.314;2023-02-01T04:51:32;2.00;91.70
20911;DHT22;10615;42.702;23.314;2023-02-01T04:52:33;2.00;91.70
20911;DHT22;10615;42.702;23.314;2023-02-01T04:53:33;2.00;92.10
20911;DHT22;10615;42.702;23.314;2023-02-01T04:54:34;2.00;91.70
20911;DHT22;10615;42.702;23.314;2023-02-01T04:55:35;2.00;91.70
20911;DHT22;10615;42.702;23.314;2023-02-01T04:56:35;2.00;91.70
20911;DHT22;10615;42.702;23.314;2023-02-01T04:57:36;2.00;91.70
20911;DHT22;10615;42.702;23.314;2023-02-01T04:58:39;2.00;91.80
20911;DHT22;10615;42.702;23.314;2023-02-01T04:59:39;2.00;91.80
20911;DHT22;10615;42.702;23.314;2023-02-01T05:00:40;2.00;91.80
20911;DHT22;10615;42.702;23.314;2023-02-01T05:01:41;2.00;91.80
20911;DHT22;10615;42.702;23.314;2023-02-01T05:02:41;2.00;91.90
20911;DHT22;10615;42.702;23.314;2023-02-01T05:03:42;2.00;91.90
20911;DHT22;10615;42.702;23.314;2023-02-01T05:04:43;2.10;92.00
20911;DHT22;10615;42.702;23.314;2023-02-01T05:05:43;2.10;92.00
20911;DHT22;10615;42.702;23.314;2023-02-01T05:06:44;2.00;92.00
20911;DHT22;10615;42.702;23.314;2023-02-01T05:07:46;2.00;92.40
20911;DHT22;10615;42.702;23.314;2023-02-01T05:08:47;2.00;92.10
20911;DHT22;10615;42.702;23.314;2023-02-01T05:09:48;2.00;92.20
20911;DHT22;10615;42.702;23.314;2023-02-01T05:10:48;2.10;92.20
20911;DHT22;10615;42.702;23.314;2023-02-01T05:11:49;2.00;92.30
20911;DHT22;10615;42.702;23.314;2023-02-01T05:13:10;2.00;92.40
20911;DHT22;10615;42.702;23.314;2023-02-01T05:14:29;2.00;92.50
20911;DHT22;10615;42.702;23.314;2023-02-01T05:15:31;2.10;92.50
20911;DHT22;10615;42.702;23.314;2023-02-01T05:16:31;2.10;92.60
20911;DHT22;10615;42.702;23.314;2023-02-01T05:17:32;2.10;92.50
20911;DHT22;10615;42.702;23.314;2023-02-01T05:18:33;2.10;92.50
20911;DHT22;10615;42.702;23.314;2023-02-01T05:19:33;2.10;92.60
20911;DHT22;10615;42.702;23.314;2023-02-01T05:20:34;2.10;92.60
20911;DHT22;10615;42.702;23.314;2023-02-01T05:21:34;2.10;92.60
20911;DHT22;10615;42.702;23.314;2023-02-01T05:22:35;2.10;92.60
20911;DHT22;10615;42.702;23.314;2023-02-01T05:23:36;2.10;92.60
20911;DHT22;10615;42.702;23.314;2023-02-01T05:24:56;2.10;92.60
20911;DHT22;10615;42.702;23.314;2023-02-01T05:26:00;2.20;92.60
20911;DHT22;10615;42.702;23.314;2023-02-01T05:27:01;2.10;92.60
20911;DHT22;10615;42.702;23.314;2023-02-01T05:28:02;2.10;92.50
20911;DHT22;10615;42.702;23.314;2023-02-01T05:29:03;2.10;92.50
20911;DHT22;10615;42.702;23.314;2023-02-01T05:30:05;2.20;92.60
20911;DHT22;10615;42.702;23.314;2023-02-01T05:31:10;2.10;92.50
20911;DHT22;10615;42.702;23.314;2023-02-01T05:32:11;2.20;92.60
20911;DHT22;10615;42.702;23.314;2023-02-01T05:33:12;2.10;92.50
20911;DHT22;10615;42.702;23.314;2023-02-01T05:34:13;2.20;92.60
20911;DHT22;10615;42.702;23.314;2023-02-01T05:35:14;2.10;92.50
20911;DHT22;10615;42.702;23.314;2023-02-01T05:36:15;2.20;92.70
20911;DHT22;10615;42.702;23.314;2023-02-01T05:37:16;2.20;92.80
20911;DHT22;10615;42.702;23.314;2023-02-01T05:38:16;2.20;92.80
20911;DHT22;10615;42.702;23.314;2023-02-01T05:39:17;2.30;92.80
20911;DHT22;10615;42.702;23.314;2023-02-01T05:40:17;2.30;92.80
20911;DHT22;10615;42.702;23.314;2023-02-01T05:41:18;2.30;92.70
20911;DHT22;10615;42.702;23.314;2023-02-01T05:42:19;2.30;92.70
20911;DHT22;10615;42.702;23.314;2023-02-01T05:43:20;2.30;92.60
20911;DHT22;10615;42.702;23.314;2023-02-01T05:44:20;2.30;92.60
20911;DHT22;10615;42.702;23.314;2023-02-01T05:45:21;2.40;92.60
20911;DHT22;10615;42.702;23.314;2023-02-01T05:46:21;2.40;92.50
20911;DHT22;10615;42.702;23.314;2023-02-01T05:47:22;2.40;92.50
20911;DHT22;10615;42.702;23.314;2023-02-01T05:48:23;2.40;92.40
20911;DHT22;10615;42.702;23.314;2023-02-01T05:49:23;2.40;92.40
20911;DHT22;10615;42.702;23.314;2023-02-01T05:50:24;2.40;92.30
20911;DHT22;10615;42.702;23.314;2023-02-01T05:51:25;2.40;92.30
20911;DHT22;10615;42.702;23.314;2023-02-01T05:52:25;2.50;92.30
20911;DHT22;10615;42.702;23.314;2023-02-01T05:53:26;2.50;92.20
20911;DHT22;10615;42.702;23.314;2023-02-01T05:54:27;2.50;92.20
20911;DHT22;10615;42.702;23.314;2023-02-01T05:55:28;2.50;92.60
20911;DHT22;10615;42.702;23.314;2023-02-01T05:56:28;2.50;92.20
20911;DHT22;10615;42.702;23.314;2023-02-01T05:57:29;2.50;92.20
20911;DHT22;10615;42.702;23.314;2023-02-01T05:58:30;2.50;92.20
20911;DHT22;10615;42.702;23.314;2023-02-01T05:59:31;2.50;92.10
20911;DHT22;10615;42.702;23.314;2023-02-01T06:00:32;2.60;92.10
20911;DHT22;10615;42.702;23.314;2023-02-01T06:01:32;2.60;92.00
20911;DHT22;10615;42.702;23.314;2023-02-01T06:02:33;2.50;91.90
20911;DHT22;10615;42.702;23.314;2023-02-01T06:03:34;2.60;91.90
20911;DHT22;10615;42.702;23.314;2023-02-01T06:04:34;2.60;91.90
20911;DHT22;10615;42.702;23.314;2023-02-01T06:05:35;2.60;91.90
20911;DHT22;10615;42.702;23.314;2023-02-01T06:06:37;2.60;91.90
20911;DHT22;10615;42.702;23.314;2023-02-01T06:07:37;2.60;91.80
20911;DHT22;10615;42.702;23.314;2023-02-01T06:08:38;2.70;91.90
20911;DHT22;10615;42.702;23.314;2023-02-01T06:09:40;2.70;91.90
20911;DHT22;10615;42.702;23.314;2023-02-01T06:10:41;2.70;91.90
20911;DHT22;10615;42.702;23.314;2023-02-01T06:11:42;2.70;91.80
20911;DHT22;10615;42.702;23.314;2023-02-01T06:12:43;2.70;91.70
20911;DHT22;10615;42.702;23.314;2023-02-01T06:13:45;2.80;91.60
20911;DHT22;10615;42.702;23.314;2023-02-01T06:14:45;2.80;91.50
20911;DHT22;10615;42.702;23.314;2023-02-01T06:15:46;2.80;91.60
20911;DHT22;10615;42.702;23.314;2023-02-01T06:16:47;2.80;91.50
20911;DHT22;10615;42.702;23.314;2023-02-01T06:17:47;2.80;91.40
20911;DHT22;10615;42.702;23.314;2023-02-01T06:18:48;2.90;91.40
20911;DHT22;10615;42.702;23.314;2023-02-01T06:19:49;2.80;91.30
20911;DHT22;10615;42.702;23.314;2023-02-01T06:20:54;2.80;91.20
20911;DHT22;10615;42.702;23.314;2023-02-01T06:21:55;2.90;91.20
20911;DHT22;10615;42.702;23.314;2023-02-01T06:22:56;2.90;91.10
20911;DHT22;10615;42.702;23.314;2023-02-01T06:23:57;2.90;91.10
20911;DHT22;10615;42.702;23.314;2023-02-01T06:24:58;2.90;91.00
20911;DHT22;10615;42.702;23.314;2023-02-01T06:26:06;2.90;90.90
20911;DHT22;10615;42.702;23.314;2023-02-01T06:27:08;2.90;90.90
20911;DHT22;10615;42.702;23.314;2023-02-01T06:28:09;2.90;90.80
20911;DHT22;10615;42.702;23.314;2023-02-01T06:29:10;2.90;90.80
20911;DHT22;10615;42.702;23.314;2023-02-01T06:30:12;2.90;90.80
20911;DHT22;10615;42.702;23.314;2023-02-01T06:31:16;3.00;90.80
20911;DHT22;10615;42.702;23.314;2023-02-01T06:32:16;3.00;90.70
20911;DHT22;10615;42.702;23.314;2023-02-01T06:33:17;3.00;90.70
20911;DHT22;10615;42.702;23.314;2023-02-01T06:34:18;3.00;90.60
20911;DHT22;10615;42.702;23.314;2023-02-01T06:35:19;3.00;90.60
20911;DHT22;10615;42.702;23.314;2023-02-01T06:36:20;3.10;90.50
20911;DHT22;10615;42.702;23.314;2023-02-01T06:37:22;3.00;90.40
20911;DHT22;10615;42.702;23.314;2023-02-01T06:38:25;3.10;90.40
20911;DHT22;10615;42.702;23.314;2023-02-01T06:39:26;3.10;90.40
20911;DHT22;10615;42.702;23.314;2023-02-01T06:40:28;3.10;90.30
20911;DHT22;10615;42.702;23.314;2023-02-01T06:41:29;3.10;90.20
20911;DHT22;10615;42.702;23.314;2023-02-01T06:42:30;3.20;90.20
20911;DHT22;10615;42.702;23.314;2023-02-01T06:43:30;3.20;90.10
20911;DHT22;10615;42.702;23.314;2023-02-01T06:44:32;3.20;90.00
20911;DHT22;10615;42.702;23.314;2023-02-01T06:45:33;3.20;90.00
20911;DHT22;10615;42.702;23.314;2023-02-01T06:46:34;3.20;89.90
20911;DHT22;10615;42.702;23.314;2023-02-01T06:47:35;3.20;89.80
20911;DHT22;10615;42.702;23.314;2023-02-01T06:48:35;3.20;89.80
20911;DHT22;10615;42.702;23.314;2023-02-01T06:49:36;3.20;89.70
20911;DHT22;10615;42.702;23.314;2023-02-01T06:50:37;3.20;89.70
20911;DHT22;10615;42.702;23.314;2023-02-01T06:51:37;3.20;89.50
20911;DHT22;10615;42.702;23.314;2023-02-01T06:52:38;3.20;89.50
20911;DHT22;10615;42.702;23.314;2023-02-01T06:53:38;3.20;89.40
20911;DHT22;10615;42.702;23.314;2023-02-01T06:54:39;3.20;89.40
20911;DHT22;10615;42.702;23.314;2023-02-01T06:55:40;3.20;89.40
20911;DHT22;10615;42.702;23.314;2023-02-01T06:56:40;3.30;89.40
20911;DHT22;10615;42.702;23.314;2023-02-01T06:57:41;3.30;89.40
20911;DHT22;10615;42.702;23.314;2023-02-01T06:58:42;3.30;89.50
20911;DHT22;10615;42.702;23.314;2023-02-01T06:59:43;3.30;89.40
20911;DHT22;10615;42.702;23.314;2023-02-01T07:00:43;3.30;89.30
20911;DHT22;10615;42.702;23.314;2023-02-01T07:01:44;3.40;89.20
20911;DHT22;10615;42.702;23.314;2023-02-01T07:02:44;3.40;89.10
20911;DHT22;10615;42.702;23.314;2023-02-01T07:03:49;3.40;88.80
20911;DHT22;10615;42.702;23.314;2023-02-01T07:04:51;3.40;88.70
20911;DHT22;10615;42.702;23.314;2023-02-01T07:05:55;3.40;88.60